Sunny Bay, Washington
Current Conditions -  °F | °C
As of 11:03 AM on Friday 28 Nov 2014 (Local Time) from KTIW Reporting Station
Moderate Rain Moderate Rain  
Wind Chill: 52°   Ceiling: 500
Heat Index: 52°   Visibility: 1.2mi
Dew Point: 50°   Wind: 5mph
Humidity: 93%   Direction: NA
Pressure: 29.49"   Gusts: NA
Location:  47.2986°N, 122.616°W
Report Text: KTIW 281903Z VRB04KT 1 1/4SM RA BR BKN005 OVC015 11/10 A2949 RMK AO2 P0003 T01110100
Loading
Personal Weather Stations






























Interactive Weather Map New forecast layout! Learn more

10-Day Weather Forecast

Advertisements
Track Severe Weather on mobile